sensor_id;sensor_type;location;lat;lon;timestamp;temperature;humidity
24632;DHT22;59977;48.782;9.190;2022-10-22T08:25:41;15.40;99.90
24632;DHT22;59977;48.782;9.190;2022-10-22T08:28:07;15.30;99.90
24632;DHT22;59977;48.782;9.190;2022-10-22T08:30:32;15.40;99.90
24632;DHT22;59977;48.782;9.190;2022-10-22T08:33:00;15.40;99.90
24632;DHT22;59977;48.782;9.190;2022-10-22T08:35:25;15.40;99.90
24632;DHT22;59977;48.782;9.190;2022-10-22T08:37:51;15.50;99.90
24632;DHT22;59977;48.782;9.190;2022-10-22T08:40:37;15.60;99.90
24632;DHT22;59977;48.782;9.190;2022-10-22T08:46:06;15.90;99.90
24632;DHT22;59977;48.782;9.190;2022-10-22T08:48:52;16.00;99.90
24632;DHT22;59977;48.782;9.190;2022-10-22T08:51:25;16.20;99.90
24632;DHT22;59977;48.782;9.190;2022-10-22T08:56:17;16.30;99.90
24632;DHT22;59977;48.782;9.190;2022-10-22T08:58:54;16.40;99.90
24632;DHT22;59977;48.782;9.190;2022-10-22T09:01:38;16.50;99.90
24632;DHT22;59977;48.782;9.190;2022-10-22T09:06:51;16.70;99.90
24632;DHT22;59977;48.782;9.190;2022-10-22T09:09:18;16.80;99.90
24632;DHT22;59977;48.782;9.190;2022-10-22T09:11:51;16.80;99.90
24632;DHT22;59977;48.782;9.190;2022-10-22T09:14:22;16.90;99.90
24632;DHT22;59977;48.782;9.190;2022-10-22T09:17:20;16.90;99.90
24632;DHT22;59977;48.782;9.190;2022-10-22T09:20:12;16.90;99.90
24632;DHT22;59977;48.782;9.190;2022-10-22T09:23:01;17.10;99.90
24632;DHT22;59977;48.782;9.190;2022-10-22T09:25:32;17.20;99.90
24632;DHT22;59977;48.782;9.190;2022-10-22T09:27:59;17.50;99.90
24632;DHT22;59977;48.782;9.190;2022-10-22T09:30:27;17.50;99.90
24632;DHT22;59977;48.782;9.190;2022-10-22T09:33:01;17.50;99.90
24632;DHT22;59977;48.782;9.190;2022-10-22T09:35:27;17.60;99.90
24632;DHT22;59977;48.782;9.190;2022-10-22T09:37:55;17.80;99.90
24632;DHT22;59977;48.782;9.190;2022-10-22T09:40:21;17.70;99.90
24632;DHT22;59977;48.782;9.190;2022-10-22T09:42:48;17.70;99.90
24632;DHT22;59977;48.782;9.190;2022-10-22T09:45:24;17.80;99.90
24632;DHT22;59977;48.782;9.190;2022-10-22T09:48:05;17.90;99.90
24632;DHT22;59977;48.782;9.190;2022-10-22T09:50:47;17.80;99.90
24632;DHT22;59977;48.782;9.190;2022-10-22T09:53:22;17.80;99.90
24632;DHT22;59977;48.782;9.190;2022-10-22T09:55:55;18.20;99.90
24632;DHT22;59977;48.782;9.190;2022-10-22T09:58:21;17.90;99.90
24632;DHT22;59977;48.782;9.190;2022-10-22T10:00:51;18.40;99.90
24632;DHT22;59977;48.782;9.190;2022-10-22T10:03:24;17.90;99.90
24632;DHT22;59977;48.782;9.190;2022-10-22T10:05:56;17.90;99.90
24632;DHT22;59977;48.782;9.190;2022-10-22T10:08:22;17.90;99.90
24632;DHT22;59977;48.782;9.190;2022-10-22T10:10:51;17.80;99.90
24632;DHT22;59977;48.782;9.190;2022-10-22T10:16:54;18.10;99.90
24632;DHT22;59977;48.782;9.190;2022-10-22T10:22:22;18.10;99.90
24632;DHT22;59977;48.782;9.190;2022-10-22T10:24:58;18.10;99.90
24632;DHT22;59977;48.782;9.190;2022-10-22T10:27:34;18.20;99.90
24632;DHT22;59977;48.782;9.190;2022-10-22T10:30:10;18.20;99.90
24632;DHT22;59977;48.782;9.190;2022-10-22T10:32:49;18.10;99.90
24632;DHT22;59977;48.782;9.190;2022-10-22T10:40:49;18.10;99.90
24632;DHT22;59977;48.782;9.190;2022-10-22T10:49:20;18.10;99.90
24632;DHT22;59977;48.782;9.190;2022-10-22T10:54:43;18.30;99.90
24632;DHT22;59977;48.782;9.190;2022-10-22T10:57:24;18.30;99.90
24632;DHT22;59977;48.782;9.190;2022-10-22T11:03:00;18.40;99.90
24632;DHT22;59977;48.782;9.190;2022-10-22T11:05:47;18.20;99.90
24632;DHT22;59977;48.782;9.190;2022-10-22T11:08:34;18.10;99.90
24632;DHT22;59977;48.782;9.190;2022-10-22T11:11:25;18.10;99.90
24632;DHT22;59977;48.782;9.190;2022-10-22T11:13:59;18.30;99.90
24632;DHT22;59977;48.782;9.190;2022-10-22T11:21:49;18.30;99.90
24632;DHT22;59977;48.782;9.190;2022-10-22T11:24:24;18.50;99.90
24632;DHT22;59977;48.782;9.190;2022-10-22T11:27:03;18.60;99.90
24632;DHT22;59977;48.782;9.190;2022-10-22T11:29:38;18.60;99.90
24632;DHT22;59977;48.782;9.190;2022-10-22T11:32:09;18.70;99.90
24632;DHT22;59977;48.782;9.190;2022-10-22T11:37:13;19.10;99.90
24632;DHT22;59977;48.782;9.190;2022-10-22T11:39:54;19.20;99.90
24632;DHT22;59977;48.782;9.190;2022-10-22T11:42:45;19.00;99.90
24632;DHT22;59977;48.782;9.190;2022-10-22T11:55:52;18.60;99.90
24632;DHT22;59977;48.782;9.190;2022-10-22T11:58:33;18.50;99.90
24632;DHT22;59977;48.782;9.190;2022-10-22T12:11:21;19.00;99.90
24632;DHT22;59977;48.782;9.190;2022-10-22T12:16:44;19.00;99.90
24632;DHT22;59977;48.782;9.190;2022-10-22T12:21:38;19.00;99.90
24632;DHT22;59977;48.782;9.190;2022-10-22T12:24:05;19.00;99.90
24632;DHT22;59977;48.782;9.190;2022-10-22T12:26:31;19.20;99.90
24632;DHT22;59977;48.782;9.190;2022-10-22T12:29:01;18.90;99.90
24632;DHT22;59977;48.782;9.190;2022-10-22T12:31:27;19.20;99.90
24632;DHT22;59977;48.782;9.190;2022-10-22T12:33:59;19.20;99.90
24632;DHT22;59977;48.782;9.190;2022-10-22T12:36:25;19.30;99.90
24632;DHT22;59977;48.782;9.190;2022-10-22T12:38:52;19.10;99.90
24632;DHT22;59977;48.782;9.190;2022-10-22T12:41:18;19.00;99.90
24632;DHT22;59977;48.782;9.190;2022-10-22T12:43:44;19.10;99.90
24632;DHT22;59977;48.782;9.190;2022-10-22T12:46:14;19.10;99.90
24632;DHT22;59977;48.782;9.190;2022-10-22T12:48:43;19.10;99.90
24632;DHT22;59977;48.782;9.190;2022-10-22T12:51:15;19.10;99.90
24632;DHT22;59977;48.782;9.190;2022-10-22T12:53:50;19.10;99.90
24632;DHT22;59977;48.782;9.190;2022-10-22T12:56:22;19.20;99.90
24632;DHT22;59977;48.782;9.190;2022-10-22T12:58:54;19.20;99.90
24632;DHT22;59977;48.782;9.190;2022-10-22T13:01:21;19.10;99.90
24632;DHT22;59977;48.782;9.190;2022-10-22T13:03:50;19.20;99.90
24632;DHT22;59977;48.782;9.190;2022-10-22T13:06:27;19.40;99.90
24632;DHT22;59977;48.782;9.190;2022-10-22T13:11:36;19.80;99.90
24632;DHT22;59977;48.782;9.190;2022-10-22T13:16:42;19.70;99.90
24632;DHT22;59977;48.782;9.190;2022-10-22T13:24:57;20.20;99.90
24632;DHT22;59977;48.782;9.190;2022-10-22T13:27:26;20.30;99.90
24632;DHT22;59977;48.782;9.190;2022-10-22T13:29:52;20.80;99.90
24632;DHT22;59977;48.782;9.190;2022-10-22T13:32:38;21.00;99.90
24632;DHT22;59977;48.782;9.190;2022-10-22T13:35:04;20.90;99.90
24632;DHT22;59977;48.782;9.190;2022-10-22T13:37:31;20.90;99.90
24632;DHT22;59977;48.782;9.190;2022-10-22T13:39:58;20.80;99.90
24632;DHT22;59977;48.782;9.190;2022-10-22T13:42:24;20.90;99.90
24632;DHT22;59977;48.782;9.190;2022-10-22T13:44:50;20.80;99.90
24632;DHT22;59977;48.782;9.190;2022-10-22T13:47:27;21.00;99.90
24632;DHT22;59977;48.782;9.190;2022-10-22T13:49:55;21.10;99.90
24632;DHT22;59977;48.782;9.190;2022-10-22T13:52:37;21.40;99.90
24632;DHT22;59977;48.782;9.190;2022-10-22T13:55:24;21.60;99.90
24632;DHT22;59977;48.782;9.190;2022-10-22T13:58:12;21.40;99.90
24632;DHT22;59977;48.782;9.190;2022-10-22T14:00:41;21.30;99.90
24632;DHT22;59977;48.782;9.190;2022-10-22T14:03:11;21.80;99.90
24632;DHT22;59977;48.782;9.190;2022-10-22T14:05:37;21.80;99.90
24632;DHT22;59977;48.782;9.190;2022-10-22T14:08:04;22.00;99.90
24632;DHT22;59977;48.782;9.190;2022-10-22T14:10:33;22.20;99.90
24632;DHT22;59977;48.782;9.190;2022-10-22T14:12:59;21.60;99.90
24632;DHT22;59977;48.782;9.190;2022-10-22T14:15:26;22.30;99.90
24632;DHT22;59977;48.782;9.190;2022-10-22T14:17:56;21.60;99.90
24632;DHT22;59977;48.782;9.190;2022-10-22T14:20:25;21.50;99.90
24632;DHT22;59977;48.782;9.190;2022-10-22T14:22:51;21.50;99.90
24632;DHT22;59977;48.782;9.190;2022-10-22T14:25:19;21.50;99.90
24632;DHT22;59977;48.782;9.190;2022-10-22T14:27:46;21.70;99.90
24632;DHT22;59977;48.782;9.190;2022-10-22T14:30:19;22.20;99.90
24632;DHT22;59977;48.782;9.190;2022-10-22T14:32:45;22.30;99.90
24632;DHT22;59977;48.782;9.190;2022-10-22T14:35:14;22.30;99.90
24632;DHT22;59977;48.782;9.190;2022-10-22T14:37:40;22.00;99.90
24632;DHT22;59977;48.782;9.190;2022-10-22T14:40:07;22.10;99.90
24632;DHT22;59977;48.782;9.190;2022-10-22T14:42:39;22.40;99.90
24632;DHT22;59977;48.782;9.190;2022-10-22T14:45:08;22.40;99.90
24632;DHT22;59977;48.782;9.190;2022-10-22T14:47:36;22.10;99.90
24632;DHT22;59977;48.782;9.190;2022-10-22T14:50:02;22.00;99.90
24632;DHT22;59977;48.782;9.190;2022-10-22T14:52:28;22.40;99.90
24632;DHT22;59977;48.782;9.190;2022-10-22T14:54:53;23.00;99.90
24632;DHT22;59977;48.782;9.190;2022-10-22T14:57:19;23.50;99.90
24632;DHT22;59977;48.782;9.190;2022-10-22T14:59:44;23.90;99.90
24632;DHT22;59977;48.782;9.190;2022-10-22T15:02:13;24.70;98.30
24632;DHT22;59977;48.782;9.190;2022-10-22T15:04:38;25.60;95.80
24632;DHT22;59977;48.782;9.190;2022-10-22T15:07:04;25.90;94.90
24632;DHT22;59977;48.782;9.190;2022-10-22T15:09:30;26.40;93.00
24632;DHT22;59977;48.782;9.190;2022-10-22T15:11:56;26.70;91.40
24632;DHT22;59977;48.782;9.190;2022-10-22T15:14:21;26.90;90.70
24632;DHT22;59977;48.782;9.190;2022-10-22T15:16:47;27.20;89.50
24632;DHT22;59977;48.782;9.190;2022-10-22T15:19:13;27.50;86.50
24632;DHT22;59977;48.782;9.190;2022-10-22T15:21:38;27.60;84.30
24632;DHT22;59977;48.782;9.190;2022-10-22T15:24:05;27.60;83.60
24632;DHT22;59977;48.782;9.190;2022-10-22T15:26:30;27.40;83.40
24632;DHT22;59977;48.782;9.190;2022-10-22T15:28:56;26.40;85.40
24632;DHT22;59977;48.782;9.190;2022-10-22T15:31:43;24.80;90.40
24632;DHT22;59977;48.782;9.190;2022-10-22T15:34:09;23.70;93.20
24632;DHT22;59977;48.782;9.190;2022-10-22T15:36:34;22.80;96.10
24632;DHT22;59977;48.782;9.190;2022-10-22T15:39:05;22.20;98.70
24632;DHT22;59977;48.782;9.190;2022-10-22T15:41:31;21.60;99.90
24632;DHT22;59977;48.782;9.190;2022-10-22T15:43:56;21.30;99.90
24632;DHT22;59977;48.782;9.190;2022-10-22T15:46:22;21.10;99.90
24632;DHT22;59977;48.782;9.190;2022-10-22T15:48:51;20.80;99.90
24632;DHT22;59977;48.782;9.190;2022-10-22T15:51:18;20.60;99.90
24632;DHT22;59977;48.782;9.190;2022-10-22T15:53:50;20.40;99.90
24632;DHT22;59977;48.782;9.190;2022-10-22T15:56:16;20.30;99.90
24632;DHT22;59977;48.782;9.190;2022-10-22T15:58:42;20.10;99.90
24632;DHT22;59977;48.782;9.190;2022-10-22T16:01:10;20.00;99.90
24632;DHT22;59977;48.782;9.190;2022-10-22T16:03:35;19.90;99.90
24632;DHT22;59977;48.782;9.190;2022-10-22T16:06:02;19.80;99.90
24632;DHT22;59977;48.782;9.190;2022-10-22T16:08:28;19.60;99.90
24632;DHT22;59977;48.782;9.190;2022-10-22T16:10:54;19.70;99.90
24632;DHT22;59977;48.782;9.190;2022-10-22T16:13:20;19.60;99.90
24632;DHT22;59977;48.782;9.190;2022-10-22T16:15:48;19.30;99.90
24632;DHT22;59977;48.782;9.190;2022-10-22T16:18:14;19.30;99.90
24632;DHT22;59977;48.782;9.190;2022-10-22T16:20:40;19.20;99.90
24632;DHT22;59977;48.782;9.190;2022-10-22T16:23:06;19.10;99.90
24632;DHT22;59977;48.782;9.190;2022-10-22T16:25:38;19.00;99.90
24632;DHT22;59977;48.782;9.190;2022-10-22T16:28:04;19.00;99.90
24632;DHT22;59977;48.782;9.190;2022-10-22T16:30:34;18.90;99.90
24632;DHT22;59977;48.782;9.190;2022-10-22T16:33:01;19.70;99.90
24632;DHT22;59977;48.782;9.190;2022-10-22T16:35:27;19.00;99.90
24632;DHT22;59977;48.782;9.190;2022-10-22T16:37:53;19.00;99.90
24632;DHT22;59977;48.782;9.190;2022-10-22T16:40:19;19.40;99.90
24632;DHT22;59977;48.782;9.190;2022-10-22T16:42:44;18.70;99.90
24632;DHT22;59977;48.782;9.190;2022-10-22T16:45:10;18.50;99.90
24632;DHT22;59977;48.782;9.190;2022-10-22T16:47:36;18.50;99.90
24632;DHT22;59977;48.782;9.190;2022-10-22T16:50:01;18.40;99.90
24632;DHT22;59977;48.782;9.190;2022-10-22T16:52:27;18.30;99.90
24632;DHT22;59977;48.782;9.190;2022-10-22T16:54:53;18.20;99.90
24632;DHT22;59977;48.782;9.190;2022-10-22T16:57:18;18.50;99.90
24632;DHT22;59977;48.782;9.190;2022-10-22T16:59:44;18.10;99.90
24632;DHT22;59977;48.782;9.190;2022-10-22T17:02:11;18.00;99.90
24632;DHT22;59977;48.782;9.190;2022-10-22T17:04:37;18.10;99.90
24632;DHT22;59977;48.782;9.190;2022-10-22T17:07:02;17.90;99.90
24632;DHT22;59977;48.782;9.190;2022-10-22T17:09:28;18.50;99.90
24632;DHT22;59977;48.782;9.190;2022-10-22T17:11:53;17.80;99.90
24632;DHT22;59977;48.782;9.190;2022-10-22T17:14:20;17.60;99.90
24632;DHT22;59977;48.782;9.190;2022-10-22T17:16:45;17.70;99.90
24632;DHT22;59977;48.782;9.190;2022-10-22T17:19:13;17.70;99.90
24632;DHT22;59977;48.782;9.190;2022-10-22T17:21:40;17.60;99.90
24632;DHT22;59977;48.782;9.190;2022-10-22T17:24:06;17.60;99.90
24632;DHT22;59977;48.782;9.190;2022-10-22T17:26:32;17.60;99.90
24632;DHT22;59977;48.782;9.190;2022-10-22T17:28:59;17.80;99.90
24632;DHT22;59977;48.782;9.190;2022-10-22T17:31:30;17.50;99.90
24632;DHT22;59977;48.782;9.190;2022-10-22T17:33:57;17.50;99.90
24632;DHT22;59977;48.782;9.190;2022-10-22T17:36:25;17.70;99.90
24632;DHT22;59977;48.782;9.190;2022-10-22T17:38:54;17.40;99.90
24632;DHT22;59977;48.782;9.190;2022-10-22T17:41:30;17.40;99.90
24632;DHT22;59977;48.782;9.190;2022-10-22T17:43:57;18.10;99.90
24632;DHT22;59977;48.782;9.190;2022-10-22T17:46:28;17.50;99.90
24632;DHT22;59977;48.782;9.190;2022-10-22T17:48:59;17.60;99.90
24632;DHT22;59977;48.782;9.190;2022-10-22T17:51:27;17.30;99.90
24632;DHT22;59977;48.782;9.190;2022-10-22T17:53:53;17.30;99.90
24632;DHT22;59977;48.782;9.190;2022-10-22T17:56:24;17.30;99.90
24632;DHT22;59977;48.782;9.190;2022-10-22T17:58:51;17.20;99.90
24632;DHT22;59977;48.782;9.190;2022-10-22T18:01:24;17.60;99.90
24632;DHT22;59977;48.782;9.190;2022-10-22T18:03:51;17.10;99.90
24632;DHT22;59977;48.782;9.190;2022-10-22T18:06:16;17.10;99.90
24632;DHT22;59977;48.782;9.190;2022-10-22T18:08:42;17.10;99.90
24632;DHT22;59977;48.782;9.190;2022-10-22T18:11:11;17.30;99.90
24632;DHT22;59977;48.782;9.190;2022-10-22T18:13:37;17.10;99.90
24632;DHT22;59977;48.782;9.190;2022-10-22T18:16:03;17.00;99.90
24632;DHT22;59977;48.782;9.190;2022-10-22T18:18:29;17.00;99.90
24632;DHT22;59977;48.782;9.190;2022-10-22T18:20:55;17.00;99.90
24632;DHT22;59977;48.782;9.190;2022-10-22T18:23:20;17.30;99.90
24632;DHT22;59977;48.782;9.190;2022-10-22T18:25:46;16.90;99.90
24632;DHT22;59977;48.782;9.190;2022-10-22T18:28:14;16.90;99.90
24632;DHT22;59977;48.782;9.190;2022-10-22T18:30:40;17.70;99.90
24632;DHT22;59977;48.782;9.190;2022-10-22T18:33:07;16.80;99.90
24632;DHT22;59977;48.782;9.190;2022-10-22T18:35:33;16.80;99.90
24632;DHT22;59977;48.782;9.190;2022-10-22T18:37:59;16.80;99.90
24632;DHT22;59977;48.782;9.190;2022-10-22T18:40:25;16.80;99.90
24632;DHT22;59977;48.782;9.190;2022-10-22T18:42:50;16.70;99.90
24632;DHT22;59977;48.782;9.190;2022-10-22T18:45:16;16.70;99.90
24632;DHT22;59977;48.782;9.190;2022-10-22T18:47:41;16.70;99.90
24632;DHT22;59977;48.782;9.190;2022-10-22T18:50:08;16.70;99.90
24632;DHT22;59977;48.782;9.190;2022-10-22T18:52:34;16.70;99.90
24632;DHT22;59977;48.782;9.190;2022-10-22T18:54:59;16.60;99.90
24632;DHT22;59977;48.782;9.190;2022-10-22T18:57:25;16.60;99.90
24632;DHT22;59977;48.782;9.190;2022-10-22T18:59:50;16.50;99.90
24632;DHT22;59977;48.782;9.190;2022-10-22T19:02:16;16.60;99.90
24632;DHT22;59977;48.782;9.190;2022-10-22T19:04:42;16.50;99.90
24632;DHT22;59977;48.782;9.190;2022-10-22T19:07:09;16.60;99.90
24632;DHT22;59977;48.782;9.190;2022-10-22T19:09:35;16.50;99.90
24632;DHT22;59977;48.782;9.190;2022-10-22T19:12:01;16.70;99.90
24632;DHT22;59977;48.782;9.190;2022-10-22T19:14:26;17.50;99.90
24632;DHT22;59977;48.782;9.190;2022-10-22T19:16:52;17.30;99.90
24632;DHT22;59977;48.782;9.190;2022-10-22T19:19:19;16.50;99.90
24632;DHT22;59977;48.782;9.190;2022-10-22T19:21:45;16.50;99.90
24632;DHT22;59977;48.782;9.190;2022-10-22T19:24:13;17.20;99.90
24632;DHT22;59977;48.782;9.190;2022-10-22T19:26:39;16.40;99.90
24632;DHT22;59977;48.782;9.190;2022-10-22T19:29:05;16.80;99.90
24632;DHT22;59977;48.782;9.190;2022-10-22T19:31:30;17.30;99.90
24632;DHT22;59977;48.782;9.190;2022-10-22T19:33:57;16.30;99.90
24632;DHT22;59977;48.782;9.190;2022-10-22T19:36:24;16.30;99.90
24632;DHT22;59977;48.782;9.190;2022-10-22T19:38:49;16.40;99.90
24632;DHT22;59977;48.782;9.190;2022-10-22T19:41:17;16.30;99.90
24632;DHT22;59977;48.782;9.190;2022-10-22T19:43:44;16.10;99.90
24632;DHT22;59977;48.782;9.190;2022-10-22T19:46:10;16.50;99.90
24632;DHT22;59977;48.782;9.190;2022-10-22T19:48:36;16.20;99.90
24632;DHT22;59977;48.782;9.190;2022-10-22T19:51:05;17.60;99.90
24632;DHT22;59977;48.782;9.190;2022-10-22T19:53:33;16.20;99.90
24632;DHT22;59977;48.782;9.190;2022-10-22T19:56:00;16.20;99.90
24632;DHT22;59977;48.782;9.190;2022-10-22T19:58:26;16.70;99.90
24632;DHT22;59977;48.782;9.190;2022-10-22T20:00:52;16.20;99.90
24632;DHT22;59977;48.782;9.190;2022-10-22T20:03:18;16.10;99.90
24632;DHT22;59977;48.782;9.190;2022-10-22T20:05:45;16.10;99.90
24632;DHT22;59977;48.782;9.190;2022-10-22T20:08:11;16.10;99.90
24632;DHT22;59977;48.782;9.190;2022-10-22T20:10:36;16.70;99.90
24632;DHT22;59977;48.782;9.190;2022-10-22T20:13:02;16.40;99.90
24632;DHT22;59977;48.782;9.190;2022-10-22T20:15:30;16.10;99.90
24632;DHT22;59977;48.782;9.190;2022-10-22T20:17:56;17.40;99.90
24632;DHT22;59977;48.782;9.190;2022-10-22T20:20:22;17.20;99.90
24632;DHT22;59977;48.782;9.190;2022-10-22T20:22:47;16.90;99.90
24632;DHT22;59977;48.782;9.190;2022-10-22T20:25:13;16.70;99.90
24632;DHT22;59977;48.782;9.190;2022-10-22T20:27:38;15.90;99.90
24632;DHT22;59977;48.782;9.190;2022-10-22T20:30:05;15.90;99.90
24632;DHT22;59977;48.782;9.190;2022-10-22T20:32:32;16.00;99.90
24632;DHT22;59977;48.782;9.190;2022-10-22T20:35:00;15.90;99.90
24632;DHT22;59977;48.782;9.190;2022-10-22T20:37:27;16.00;99.90
24632;DHT22;59977;48.782;9.190;2022-10-22T20:39:52;16.20;99.90
24632;DHT22;59977;48.782;9.190;2022-10-22T20:42:18;16.00;99.90
24632;DHT22;59977;48.782;9.190;2022-10-22T20:44:43;17.10;99.90
24632;DHT22;59977;48.782;9.190;2022-10-22T20:47:11;15.90;99.90
24632;DHT22;59977;48.782;9.190;2022-10-22T20:49:37;15.80;99.90
24632;DHT22;59977;48.782;9.190;2022-10-22T20:52:02;15.80;99.90
24632;DHT22;59977;48.782;9.190;2022-10-22T20:54:28;15.80;99.90
24632;DHT22;59977;48.782;9.190;2022-10-22T20:56:54;16.70;99.90
24632;DHT22;59977;48.782;9.190;2022-10-22T20:59:20;15.70;99.90
24632;DHT22;59977;48.782;9.190;2022-10-22T21:01:48;15.70;99.90
24632;DHT22;59977;48.782;9.190;2022-10-22T21:04:16;15.70;99.90
24632;DHT22;59977;48.782;9.190;2022-10-22T21:06:41;15.70;99.90
24632;DHT22;59977;48.782;9.190;2022-10-22T21:09:12;17.00;99.90
24632;DHT22;59977;48.782;9.190;2022-10-22T21:11:38;15.70;99.90
24632;DHT22;59977;48.782;9.190;2022-10-22T21:14:06;15.60;99.90
24632;DHT22;59977;48.782;9.190;2022-10-22T21:16:32;15.60;99.90
24632;DHT22;59977;48.782;9.190;2022-10-22T21:18:58;15.50;99.90
24632;DHT22;59977;48.782;9.190;2022-10-22T21:21:24;16.20;99.90
24632;DHT22;59977;48.782;9.190;2022-10-22T21:23:50;15.50;99.90
24632;DHT22;59977;48.782;9.190;2022-10-22T21:26:16;15.70;99.90
24632;DHT22;59977;48.782;9.190;2022-10-22T21:28:42;15.70;99.90
24632;DHT22;59977;48.782;9.190;2022-10-22T21:31:09;15.50;99.90
24632;DHT22;59977;48.782;9.190;2022-10-22T21:33:39;15.50;99.90
24632;DHT22;59977;48.782;9.190;2022-10-22T21:36:05;16.00;99.90
24632;DHT22;59977;48.782;9.190;2022-10-22T21:38:31;15.40;99.90
24632;DHT22;59977;48.782;9.190;2022-10-22T21:40:57;16.90;99.90
24632;DHT22;59977;48.782;9.190;2022-10-22T21:43:23;15.40;99.90
24632;DHT22;59977;48.782;9.190;2022-10-22T21:45:48;15.40;99.90
24632;DHT22;59977;48.782;9.190;2022-10-22T21:48:14;15.30;99.90
24632;DHT22;59977;48.782;9.190;2022-10-22T21:50:41;15.70;99.90
24632;DHT22;59977;48.782;9.190;2022-10-22T21:53:07;16.50;99.90
24632;DHT22;59977;48.782;9.190;2022-10-22T21:55:39;16.70;99.90
24632;DHT22;59977;48.782;9.190;2022-10-22T21:58:06;15.30;99.90
24632;DHT22;59977;48.782;9.190;2022-10-22T22:00:32;15.40;99.90
24632;DHT22;59977;48.782;9.190;2022-10-22T22:02:58;16.00;99.90
24632;DHT22;59977;48.782;9.190;2022-10-22T22:05:24;16.40;99.90
24632;DHT22;59977;48.782;9.190;2022-10-22T22:07:49;15.30;99.90
24632;DHT22;59977;48.782;9.190;2022-10-22T22:10:15;15.30;99.90
24632;DHT22;59977;48.782;9.190;2022-10-22T22:12:40;15.30;99.90
24632;DHT22;59977;48.782;9.190;2022-10-22T22:15:06;15.80;99.90
24632;DHT22;59977;48.782;9.190;2022-10-22T22:17:32;15.30;99.90
24632;DHT22;59977;48.782;9.190;2022-10-22T22:19:58;15.40;99.90
24632;DHT22;59977;48.782;9.190;2022-10-22T22:22:23;15.20;99.90
24632;DHT22;59977;48.782;9.190;2022-10-22T22:24:49;15.20;99.90
24632;DHT22;59977;48.782;9.190;2022-10-22T22:27:15;15.60;99.90
24632;DHT22;59977;48.782;9.190;2022-10-22T22:29:42;15.40;99.90
